createdAt,value
2023-06-04T00:01:04.114Z,94695.20
2023-06-04T00:03:51.894Z,94698.20
2023-06-04T00:06:19.741Z,94698.60
2023-06-04T00:08:47.242Z,94693.00
2023-06-04T00:11:14.893Z,94687.80
2023-06-04T00:13:42.497Z,94690.40
2023-06-04T00:16:10.095Z,94691.20
2023-06-04T00:18:37.862Z,94693.60
2023-06-04T00:21:05.903Z,94699.80
2023-06-04T00:23:34.009Z,94695.00
2023-06-04T00:26:01.671Z,94685.40
2023-06-04T00:28:30.791Z,94688.00
2023-06-04T00:30:59.464Z,94691.20
2023-06-04T00:33:27.099Z,94692.20
2023-06-04T00:35:54.843Z,94693.60
2023-06-04T00:38:25.059Z,94694.60
2023-06-04T00:40:52.606Z,94696.20
2023-06-04T00:43:20.211Z,94698.40
2023-06-04T00:45:47.872Z,94694.00
2023-06-04T00:48:15.592Z,94687.80
2023-06-04T00:50:43.413Z,94686.00
2023-06-04T00:53:11.987Z,94687.00
2023-06-04T00:55:39.767Z,94686.80
2023-06-04T00:58:07.375Z,94683.00
2023-06-04T01:00:35.801Z,94686.60
2023-06-04T01:03:07.187Z,94682.00
2023-06-04T01:05:35.357Z,94679.80
2023-06-04T01:08:03.113Z,94678.80
2023-06-04T01:10:30.717Z,94674.20
2023-06-04T01:12:58.431Z,94676.60
2023-06-04T01:15:26.060Z,94678.40
2023-06-04T01:17:54.118Z,94676.20
2023-06-04T01:20:21.768Z,94679.00
2023-06-04T01:22:49.495Z,94675.60
2023-06-04T01:25:20.820Z,94678.80
2023-06-04T01:27:50.075Z,94679.80
2023-06-04T01:30:17.620Z,94676.80
2023-06-04T01:32:45.406Z,94671.60
2023-06-04T01:35:12.957Z,94672.00
2023-06-04T01:37:40.515Z,94671.00
2023-06-04T01:40:11.274Z,94674.80
2023-06-04T01:42:38.970Z,94674.60
2023-06-04T01:45:06.747Z,94671.20
2023-06-04T01:47:35.049Z,94672.20
2023-06-04T01:50:02.750Z,94672.20
2023-06-04T01:52:30.414Z,94672.80
2023-06-04T01:54:58.467Z,94674.20
2023-06-04T01:57:26.393Z,94671.40
2023-06-04T01:59:54.019Z,94670.60
2023-06-04T02:02:21.877Z,94678.60
2023-06-04T02:04:55.339Z,94675.00
2023-06-04T02:07:22.939Z,94668.20
2023-06-04T02:09:50.491Z,94669.00
2023-06-04T02:12:19.371Z,94671.80
2023-06-04T02:14:48.254Z,94673.40
2023-06-04T02:17:17.453Z,94669.80
2023-06-04T02:19:46.133Z,94672.80
2023-06-04T02:22:13.714Z,94672.80
2023-06-04T02:24:43.312Z,94674.20
2023-06-04T02:27:11.681Z,94675.40
2023-06-04T02:29:39.292Z,94675.60
2023-06-04T02:32:06.887Z,94676.60
2023-06-04T02:34:37.357Z,94674.20
2023-06-04T02:37:05.036Z,94669.80
2023-06-04T02:39:32.547Z,94669.80
2023-06-04T02:42:00.185Z,94665.00
2023-06-04T02:44:27.889Z,94663.00
2023-06-04T02:46:55.741Z,94658.80
2023-06-04T02:49:23.323Z,94662.00
2023-06-04T02:51:51.320Z,94660.00
2023-06-04T02:54:19.110Z,94662.00
2023-06-04T02:56:46.781Z,94665.00
2023-06-04T02:59:15.201Z,94667.80
2023-06-04T03:01:42.843Z,94669.40
2023-06-04T03:04:15.706Z,94668.00
2023-06-04T03:06:47.640Z,94666.20
2023-06-04T03:09:17.069Z,94670.00
2023-06-04T03:11:44.667Z,94670.20
2023-06-04T03:14:12.492Z,94669.80
2023-06-04T03:16:41.166Z,94663.60
2023-06-04T03:19:12.741Z,94663.80
2023-06-04T03:21:41.143Z,94665.00
2023-06-04T03:24:08.732Z,94667.60
2023-06-04T03:26:36.370Z,94666.40
2023-06-04T03:29:05.289Z,94662.40
2023-06-04T03:31:33.781Z,94660.20
2023-06-04T03:34:01.515Z,94663.20
2023-06-04T03:36:32.821Z,94660.80
2023-06-04T03:39:00.776Z,94663.80
2023-06-04T03:41:30.776Z,94663.00
2023-06-04T03:43:58.580Z,94660.60
2023-06-04T03:46:32.869Z,94658.20
2023-06-04T03:49:00.519Z,94658.80
2023-06-04T03:51:28.209Z,94660.20
2023-06-04T03:53:56.422Z,94657.20
2023-06-04T03:56:24.151Z,94657.00
2023-06-04T03:58:51.816Z,94661.00
2023-06-04T04:01:19.468Z,94658.00
2023-06-04T04:03:50.879Z,94660.80
2023-06-04T04:06:18.580Z,94661.20
2023-06-04T04:08:46.128Z,94660.20
2023-06-04T04:11:13.806Z,94658.40
2023-06-04T04:13:41.295Z,94658.00
2023-06-04T04:16:08.876Z,94659.80
2023-06-04T04:18:37.607Z,94657.40
2023-06-04T04:21:05.283Z,94655.80
2023-06-04T04:23:33.171Z,94656.20
2023-06-04T04:26:00.962Z,94650.40
2023-06-04T04:28:33.240Z,94647.40
2023-06-04T04:31:09.877Z,94647.20
2023-06-04T04:33:40.962Z,94651.80
2023-06-04T04:36:14.314Z,94654.00
2023-06-04T04:38:42.317Z,94651.00
2023-06-04T04:41:09.910Z,94657.40
2023-06-04T04:43:40.114Z,94657.40
2023-06-04T04:46:07.818Z,94656.20
2023-06-04T04:48:35.453Z,94653.80
2023-06-04T04:51:03.587Z,94654.60
2023-06-04T04:53:31.158Z,94657.20
2023-06-04T04:55:58.735Z,94659.40
2023-06-04T04:58:27.148Z,94659.00
2023-06-04T05:00:54.683Z,94656.20
2023-06-04T05:03:22.348Z,94658.40
2023-06-04T05:05:49.938Z,94660.40
2023-06-04T05:08:17.482Z,94666.40
2023-06-04T05:10:45.008Z,94666.40
2023-06-04T05:13:12.648Z,94667.80
2023-06-04T05:15:41.096Z,94663.40
2023-06-04T05:18:08.827Z,94660.60
2023-06-04T05:20:38.805Z,94659.40
2023-06-04T05:23:06.798Z,94658.20
2023-06-04T05:25:34.388Z,94655.80
2023-06-04T05:28:02.869Z,94661.20
2023-06-04T05:30:32.749Z,94656.00
2023-06-04T05:33:00.403Z,94657.00
2023-06-04T05:35:28.307Z,94658.60
2023-06-04T05:37:55.971Z,94664.60
2023-06-04T05:40:24.681Z,94662.40
2023-06-04T05:42:52.280Z,94662.00
2023-06-04T05:45:19.882Z,94660.00
2023-06-04T05:47:47.588Z,94659.20
2023-06-04T05:50:15.259Z,94658.40
2023-06-04T05:52:43.074Z,94660.20
2023-06-04T05:55:11.347Z,94662.80
2023-06-04T05:57:39.243Z,94659.60
2023-06-04T06:00:10.578Z,94658.40
2023-06-04T06:02:40.197Z,94658.40
2023-06-04T06:05:09.437Z,94661.80
2023-06-04T06:07:37.210Z,94660.60
2023-06-04T06:10:04.905Z,94665.80
2023-06-04T06:12:32.605Z,94664.80
2023-06-04T06:15:00.213Z,94664.40
2023-06-04T06:17:27.998Z,94662.20
2023-06-04T06:19:56.372Z,94659.80
2023-06-04T06:22:23.895Z,94663.60
2023-06-04T06:24:52.981Z,94660.80
2023-06-04T06:27:20.571Z,94660.80
2023-06-04T06:29:48.141Z,94660.60
2023-06-04T06:32:15.897Z,94659.60
2023-06-04T06:34:43.687Z,94661.20
2023-06-04T06:37:11.290Z,94659.20
2023-06-04T06:39:39.008Z,94658.60
2023-06-04T06:42:07.116Z,94659.40
2023-06-04T06:44:34.711Z,94658.20
2023-06-04T06:47:02.371Z,94652.00
2023-06-04T06:49:30.193Z,94658.80
2023-06-04T06:51:58.346Z,94658.80
2023-06-04T06:54:26.981Z,94658.20
2023-06-04T06:56:54.530Z,94662.20
2023-06-04T06:59:25.288Z,94660.40
2023-06-04T07:01:53.087Z,94666.60
2023-06-04T07:04:23.373Z,94657.40
2023-06-04T07:06:51.602Z,94657.00
2023-06-04T07:09:19.524Z,94657.40
2023-06-04T07:11:47.174Z,94656.00
2023-06-04T07:14:14.830Z,94655.20
2023-06-04T07:16:42.486Z,94656.80
2023-06-04T07:19:10.006Z,94657.80
2023-06-04T07:21:37.542Z,94654.20
2023-06-04T07:24:05.289Z,94657.00
2023-06-04T07:26:35.137Z,94648.80
2023-06-04T07:29:03.108Z,94654.20
2023-06-04T07:31:30.760Z,94653.40
2023-06-04T07:33:58.285Z,94652.00
2023-06-04T07:36:25.971Z,94656.40
2023-06-04T07:38:53.556Z,94651.00
2023-06-04T07:41:21.336Z,94652.20
2023-06-04T07:43:48.896Z,94648.80
2023-06-04T07:46:20.124Z,94649.00
2023-06-04T07:48:49.408Z,94644.40
2023-06-04T07:51:17.442Z,94646.00
2023-06-04T07:53:45.962Z,94646.40
2023-06-04T07:56:13.507Z,94644.20
2023-06-04T07:58:44.423Z,94642.40
2023-06-04T08:01:11.972Z,94639.40
2023-06-04T08:03:39.778Z,94640.20
2023-06-04T08:06:07.559Z,94640.20
2023-06-04T08:08:35.265Z,94640.00
2023-06-04T08:11:03.687Z,94639.40
2023-06-04T08:13:31.245Z,94640.20
2023-06-04T08:15:58.996Z,94641.20
2023-06-04T08:18:26.908Z,94644.00
2023-06-04T08:20:54.539Z,94644.00
2023-06-04T08:23:22.207Z,94649.40
2023-06-04T08:25:49.893Z,94649.20
2023-06-04T08:28:20.443Z,94653.60
2023-06-04T08:30:48.220Z,94655.00
2023-06-04T08:33:16.295Z,94651.40
2023-06-04T08:35:43.844Z,94654.00
2023-06-04T08:38:11.422Z,94657.80
2023-06-04T08:40:39.274Z,94652.00
2023-06-04T08:43:06.935Z,94651.60
2023-06-04T08:45:34.546Z,94657.80
2023-06-04T08:48:02.340Z,94657.40
2023-06-04T08:50:30.004Z,94663.20
2023-06-04T08:52:58.592Z,94663.20
2023-06-04T08:55:26.265Z,94664.80
2023-06-04T08:57:56.189Z,94661.00
2023-06-04T09:00:23.800Z,94663.00
2023-06-04T09:02:52.225Z,94663.40
2023-06-04T09:05:20.339Z,94661.80
2023-06-04T09:07:50.095Z,94661.40
2023-06-04T09:10:17.893Z,94658.80
2023-06-04T09:12:45.895Z,94661.40
2023-06-04T09:15:13.606Z,94663.00
2023-06-04T09:17:41.868Z,94666.00
2023-06-04T09:20:10.113Z,94669.40
2023-06-04T09:22:38.588Z,94668.20
2023-06-04T09:25:06.122Z,94671.00
2023-06-04T09:27:39.483Z,94670.00
2023-06-04T09:30:07.345Z,94671.20
2023-06-04T09:32:34.906Z,94662.80
2023-06-04T09:35:02.529Z,94659.20
2023-06-04T09:37:30.294Z,94663.40
2023-06-04T09:40:02.178Z,94665.80
2023-06-04T09:42:29.896Z,94663.00
2023-06-04T09:45:06.786Z,94664.40
2023-06-04T09:47:34.891Z,94664.00
2023-06-04T09:50:02.492Z,94662.40
2023-06-04T09:52:30.072Z,94661.00
2023-06-04T09:54:57.644Z,94663.20
2023-06-04T09:57:26.416Z,94667.80
2023-06-04T09:59:55.665Z,94667.00
2023-06-04T10:02:23.465Z,94663.00
2023-06-04T10:04:51.965Z,94661.80
2023-06-04T10:07:19.619Z,94659.60
2023-06-04T10:09:47.134Z,94662.00
2023-06-04T10:12:15.855Z,94664.60
2023-06-04T10:14:43.778Z,94666.60
2023-06-04T10:17:11.465Z,94661.80
2023-06-04T10:19:39.293Z,94661.80
2023-06-04T10:22:07.215Z,94663.40
2023-06-04T10:24:34.795Z,94665.00
2023-06-04T10:27:02.362Z,94663.00
2023-06-04T10:29:30.012Z,94664.40
2023-06-04T10:31:57.698Z,94666.20
2023-06-04T10:34:25.233Z,94658.60
2023-06-04T10:36:53.527Z,94664.00
2023-06-04T10:39:21.079Z,94659.80
2023-06-04T10:41:48.639Z,94658.40
2023-06-04T10:44:16.307Z,94656.20
2023-06-04T10:46:44.172Z,94651.40
2023-06-04T10:49:15.925Z,94649.20
2023-06-04T10:51:45.447Z,94656.00
2023-06-04T10:54:12.994Z,94644.00
2023-06-04T10:56:40.730Z,94652.40
2023-06-04T10:59:08.823Z,94653.80
2023-06-04T11:01:37.356Z,94653.00
2023-06-04T11:04:05.160Z,94654.40
2023-06-04T11:06:33.919Z,94654.20
2023-06-04T11:09:01.556Z,94649.60
2023-06-04T11:11:29.215Z,94654.00
2023-06-04T11:13:57.643Z,94651.40
2023-06-04T11:16:25.890Z,94650.20
2023-06-04T11:18:53.490Z,94652.20
2023-06-04T11:21:22.433Z,94650.60
2023-06-04T11:23:50.260Z,94657.00
2023-06-04T11:26:18.548Z,94652.80
2023-06-04T11:28:47.267Z,94650.80
2023-06-04T11:31:14.942Z,94651.80
2023-06-04T11:33:43.621Z,94648.60
2023-06-04T11:36:11.761Z,94652.80
2023-06-04T11:38:39.601Z,94650.00
2023-06-04T11:41:07.880Z,94653.60
2023-06-04T11:43:40.642Z,94655.20
2023-06-04T11:46:10.955Z,94659.40
2023-06-04T11:48:39.702Z,94659.20
2023-06-04T11:51:10.372Z,94653.40
2023-06-04T11:53:38.022Z,94643.40
2023-06-04T11:56:08.727Z,94648.60
2023-06-04T11:58:36.401Z,94645.20
2023-06-04T12:01:07.639Z,94634.20
2023-06-04T12:03:38.890Z,94645.60
2023-06-04T12:06:07.126Z,94646.60
2023-06-04T12:08:34.690Z,94649.80
2023-06-04T12:11:02.365Z,94654.40
2023-06-04T12:13:30.801Z,94650.80
2023-06-04T12:15:58.634Z,94651.60
2023-06-04T12:18:27.597Z,94649.80
2023-06-04T12:20:55.536Z,94651.80
2023-06-04T12:23:23.309Z,94656.00
2023-06-04T12:25:51.717Z,94653.40
2023-06-04T12:28:20.082Z,94647.80
2023-06-04T12:30:47.917Z,94645.80
2023-06-04T12:33:15.644Z,94650.80
2023-06-04T12:35:43.248Z,94651.00
2023-06-04T12:38:11.691Z,94651.00
2023-06-04T12:40:40.740Z,94650.40
2023-06-04T12:43:09.525Z,94650.80
2023-06-04T12:45:37.331Z,94652.00
2023-06-04T12:48:04.898Z,94653.80
2023-06-04T12:50:32.660Z,94653.40
2023-06-04T12:53:00.290Z,94648.60
2023-06-04T12:55:28.530Z,94656.80
2023-06-04T12:57:56.986Z,94653.60
2023-06-04T13:00:24.787Z,94650.00
2023-06-04T13:02:52.736Z,94658.00
2023-06-04T13:05:22.994Z,94655.00
2023-06-04T13:07:51.208Z,94660.20
2023-06-04T13:10:18.898Z,94651.00
2023-06-04T13:12:46.630Z,94656.40
2023-06-04T13:15:14.538Z,94654.20
2023-06-04T13:17:42.249Z,94658.80
2023-06-04T13:20:11.113Z,94660.00
2023-06-04T13:22:39.927Z,94655.00
2023-06-04T13:25:08.545Z,94657.40
2023-06-04T13:27:37.004Z,94654.60
2023-06-04T13:30:04.738Z,94654.40
2023-06-04T13:32:32.536Z,94657.00
2023-06-04T13:35:00.297Z,94653.00
2023-06-04T13:37:27.902Z,94659.80
2023-06-04T13:39:55.496Z,94649.60
2023-06-04T13:42:23.014Z,94645.00
2023-06-04T13:44:50.589Z,94644.80
2023-06-04T13:47:19.459Z,94641.80
2023-06-04T13:49:47.152Z,94638.40
2023-06-04T13:52:14.669Z,94630.40
2023-06-04T13:54:42.226Z,94633.40
2023-06-04T13:57:12.751Z,94631.40
2023-06-04T13:59:40.604Z,94632.80
2023-06-04T14:02:08.682Z,94631.20
2023-06-04T14:04:37.123Z,94630.40
2023-06-04T14:07:04.702Z,94631.20
2023-06-04T14:09:32.291Z,94632.00
2023-06-04T14:12:06.706Z,94636.00
2023-06-04T14:14:37.592Z,94636.40
2023-06-04T14:17:05.458Z,94631.40
2023-06-04T14:19:33.265Z,94632.60
2023-06-04T14:22:00.845Z,94636.00
2023-06-04T14:24:28.674Z,94638.40
2023-06-04T14:26:56.765Z,94634.80
2023-06-04T14:29:24.315Z,94629.60
2023-06-04T14:31:51.881Z,94632.00
2023-06-04T14:34:19.704Z,94625.20
2023-06-04T14:36:48.560Z,94626.40
2023-06-04T14:39:16.292Z,94626.40
2023-06-04T14:41:43.970Z,94625.40
2023-06-04T14:44:11.506Z,94622.80
2023-06-04T14:46:40.135Z,94619.80
2023-06-04T14:49:07.982Z,94622.40
2023-06-04T14:51:35.888Z,94621.80
2023-06-04T14:54:04.141Z,94617.40
2023-06-04T14:56:31.782Z,94629.20
2023-06-04T14:58:59.414Z,94623.60
2023-06-04T15:01:27.041Z,94621.80
2023-06-04T15:03:55.004Z,94622.60
2023-06-04T15:06:22.586Z,94624.40
2023-06-04T15:08:51.058Z,94625.00
2023-06-04T15:11:18.783Z,94625.20
2023-06-04T15:13:46.434Z,94626.80
2023-06-04T15:16:14.338Z,94629.00
2023-06-04T15:18:44.929Z,94629.60
2023-06-04T15:21:12.760Z,94630.20
2023-06-04T15:23:40.895Z,94628.60
2023-06-04T15:26:08.443Z,94627.40
2023-06-04T15:28:36.876Z,94627.40
2023-06-04T15:31:04.525Z,94631.60
2023-06-04T15:33:32.307Z,94625.80
2023-06-04T15:36:00.167Z,94628.40
2023-06-04T15:38:29.619Z,94636.00
2023-06-04T15:40:59.565Z,94637.60
2023-06-04T15:43:27.122Z,94634.60
2023-06-04T15:45:54.875Z,94631.80
2023-06-04T15:48:22.596Z,94636.20
2023-06-04T15:50:50.627Z,94635.20
2023-06-04T15:53:19.217Z,94636.60
2023-06-04T15:55:46.842Z,94635.40
2023-06-04T15:58:14.574Z,94638.20
2023-06-04T16:00:42.350Z,94635.00
2023-06-04T16:03:10.136Z,94636.60
2023-06-04T16:05:38.958Z,94641.20
2023-06-04T16:08:06.534Z,94639.40
2023-06-04T16:10:34.565Z,94638.80
2023-06-04T16:13:02.484Z,94638.20
2023-06-04T16:15:30.532Z,94643.00
2023-06-04T16:17:58.618Z,94639.40
2023-06-04T16:20:26.408Z,94641.80
2023-06-04T16:22:54.162Z,94639.00
2023-06-04T16:25:23.229Z,94640.80
2023-06-04T16:27:53.208Z,94644.40
2023-06-04T16:30:22.901Z,94641.00
2023-06-04T16:32:50.701Z,94646.40
2023-06-04T16:35:18.622Z,94641.80
2023-06-04T16:37:46.777Z,94645.60
2023-06-04T16:40:17.205Z,94643.60
2023-06-04T16:42:44.993Z,94645.00
2023-06-04T16:45:12.860Z,94646.00
2023-06-04T16:47:42.640Z,94649.80
2023-06-04T16:50:10.823Z,94648.00
2023-06-04T16:52:38.581Z,94649.20
2023-06-04T16:55:06.907Z,94648.80
2023-06-04T16:57:34.935Z,94648.60
2023-06-04T17:00:13.394Z,94649.00
2023-06-04T17:02:45.818Z,94650.80
2023-06-04T17:05:24.595Z,94653.40
2023-06-04T17:07:53.481Z,94650.20
2023-06-04T17:10:22.527Z,94654.40
2023-06-04T17:12:50.121Z,94654.80
2023-06-04T17:15:18.185Z,94656.80
2023-06-04T17:17:47.776Z,94657.00
2023-06-04T17:20:17.794Z,94658.40
2023-06-04T17:22:46.339Z,94661.40
2023-06-04T17:25:14.186Z,94658.00
2023-06-04T17:27:42.031Z,94661.40
2023-06-04T17:30:09.935Z,94662.20
2023-06-04T17:32:39.248Z,94664.80
2023-06-04T17:35:07.552Z,94666.20
2023-06-04T17:37:38.012Z,94669.60
2023-06-04T17:40:06.113Z,94672.20
2023-06-04T17:42:36.374Z,94672.60
2023-06-04T17:45:08.873Z,94672.60
2023-06-04T17:47:37.369Z,94673.80
2023-06-04T17:50:08.069Z,94683.40
2023-06-04T17:52:36.107Z,94679.80
2023-06-04T17:55:03.933Z,94680.40
2023-06-04T17:57:31.951Z,94678.00
2023-06-04T18:00:00.298Z,94678.40
2023-06-04T18:02:28.592Z,94676.00
2023-06-04T18:05:00.751Z,94677.20
2023-06-04T18:07:28.411Z,94684.80
2023-06-04T18:09:56.182Z,94686.40
2023-06-04T18:12:24.238Z,94691.80
2023-06-04T18:14:52.524Z,94690.00
2023-06-04T18:17:21.172Z,94697.60
2023-06-04T18:19:52.576Z,94704.00
2023-06-04T18:22:20.325Z,94702.80
2023-06-04T18:24:48.723Z,94705.40
2023-06-04T18:27:16.762Z,94703.00
2023-06-04T18:29:46.828Z,94707.00
2023-06-04T18:32:15.601Z,94711.80
2023-06-04T18:34:43.252Z,94709.80
2023-06-04T18:37:11.822Z,94722.40
2023-06-04T18:39:40.304Z,94718.20
2023-06-04T18:42:28.595Z,94719.80
2023-06-04T18:44:58.428Z,94724.20
2023-06-04T18:47:27.042Z,94725.80
2023-06-04T18:49:56.912Z,94730.80
2023-06-04T18:52:25.497Z,94731.60
2023-06-04T18:54:54.228Z,94730.20
2023-06-04T18:57:23.462Z,94735.60
2023-06-04T18:59:51.475Z,94743.20
2023-06-04T19:02:19.528Z,94748.80
2023-06-04T19:04:49.184Z,94754.60
2023-06-04T19:07:18.258Z,94755.80
2023-06-04T19:09:46.120Z,94755.40
2023-06-04T19:12:14.345Z,94755.20
2023-06-04T19:14:41.891Z,94763.00
2023-06-04T19:17:09.778Z,94760.20
2023-06-04T19:19:39.271Z,94770.00
2023-06-04T19:22:06.942Z,94769.40
2023-06-04T19:24:34.806Z,94766.80
2023-06-04T19:27:10.266Z,94769.40
2023-06-04T19:29:43.655Z,94771.60
2023-06-04T19:32:11.646Z,94774.40
2023-06-04T19:34:39.780Z,94768.80
2023-06-04T19:37:07.481Z,94769.00
2023-06-04T19:39:36.836Z,94765.40
2023-06-04T19:42:06.588Z,94762.60
2023-06-04T19:44:37.157Z,94764.00
2023-06-04T19:47:07.220Z,94762.20
2023-06-04T19:49:35.232Z,94763.20
2023-06-04T19:52:03.189Z,94766.00
2023-06-04T19:54:31.476Z,94769.80
2023-06-04T19:57:00.136Z,94774.60
2023-06-04T19:59:27.968Z,94780.40
2023-06-04T20:01:57.308Z,94781.40
2023-06-04T20:04:24.989Z,94785.20
2023-06-04T20:06:57.577Z,94781.60
2023-06-04T20:09:29.094Z,94779.80
2023-06-04T20:11:58.167Z,94783.20
2023-06-04T20:14:25.831Z,94786.60
2023-06-04T20:16:54.698Z,94787.80
2023-06-04T20:19:23.234Z,94787.40
2023-06-04T20:21:50.864Z,94788.00
2023-06-04T20:24:20.929Z,94791.20
2023-06-04T20:26:49.102Z,94791.00
2023-06-04T20:29:16.710Z,94786.80
2023-06-04T20:31:47.295Z,94792.80
2023-06-04T20:34:15.724Z,94799.00
2023-06-04T20:36:43.557Z,94794.60
2023-06-04T20:39:16.354Z,94799.40
2023-06-04T20:41:44.138Z,94796.00
2023-06-04T20:44:12.137Z,94797.00
2023-06-04T20:46:39.962Z,94792.20
2023-06-04T20:49:07.565Z,94790.20
2023-06-04T20:51:36.534Z,94796.00
2023-06-04T20:54:04.126Z,94793.00
2023-06-04T20:56:32.009Z,94792.00
2023-06-04T20:59:01.827Z,94786.80
2023-06-04T21:01:30.929Z,94792.20
2023-06-04T21:04:01.630Z,94794.80
2023-06-04T21:06:29.568Z,94797.20
2023-06-04T21:08:57.226Z,94801.00
2023-06-04T21:11:24.964Z,94796.20
2023-06-04T21:13:52.517Z,94797.40
2023-06-04T21:16:20.194Z,94797.20
2023-06-04T21:18:47.762Z,94791.80
2023-06-04T21:21:15.320Z,94788.40
2023-06-04T21:23:44.285Z,94792.00
2023-06-04T21:26:11.886Z,94790.80
2023-06-04T21:28:39.568Z,94792.00
2023-06-04T21:31:07.508Z,94793.00
2023-06-04T21:33:35.379Z,94796.00
2023-06-04T21:36:02.992Z,94800.80
2023-06-04T21:38:30.883Z,94803.00
2023-06-04T21:40:58.472Z,94799.40
2023-06-04T21:43:26.835Z,94801.60
2023-06-04T21:45:55.272Z,94804.60
2023-06-04T21:48:23.304Z,94797.20
2023-06-04T21:50:50.944Z,94800.00
2023-06-04T21:53:19.549Z,94802.60
2023-06-04T21:55:47.196Z,94806.20
2023-06-04T21:58:14.884Z,94800.60
2023-06-04T22:00:42.738Z,94800.40
2023-06-04T22:03:10.624Z,94805.20
2023-06-04T22:05:39.071Z,94803.00
2023-06-04T22:08:06.871Z,94802.20
2023-06-04T22:10:34.882Z,94804.60
2023-06-04T22:13:02.878Z,94803.80
2023-06-04T22:15:31.042Z,94805.80
2023-06-04T22:18:00.782Z,94808.00
2023-06-04T22:20:28.833Z,94810.80
2023-06-04T22:22:56.439Z,94806.20
2023-06-04T22:25:24.026Z,94812.20
2023-06-04T22:27:52.881Z,94811.00
2023-06-04T22:30:20.796Z,94809.00
2023-06-04T22:32:49.056Z,94808.00
2023-06-04T22:35:16.782Z,94812.00
2023-06-04T22:37:46.270Z,94814.40
2023-06-04T22:40:15.151Z,94813.00
2023-06-04T22:42:42.771Z,94807.40
2023-06-04T22:45:10.577Z,94803.80
2023-06-04T22:47:38.138Z,94800.00
2023-06-04T22:50:06.876Z,94801.60
2023-06-04T22:52:34.812Z,94800.80
2023-06-04T22:55:04.662Z,94799.20
2023-06-04T22:57:32.176Z,94805.20
2023-06-04T22:59:59.820Z,94803.40
2023-06-04T23:02:27.466Z,94800.80
2023-06-04T23:04:55.273Z,94800.60
2023-06-04T23:07:23.017Z,94798.40
2023-06-04T23:09:50.814Z,94792.60
2023-06-04T23:12:18.382Z,94796.80
2023-06-04T23:14:46.133Z,94793.00
2023-06-04T23:17:13.877Z,94801.60
2023-06-04T23:19:41.469Z,94800.80
2023-06-04T23:22:09.175Z,94795.40
2023-06-04T23:24:37.176Z,94794.00
2023-06-04T23:27:04.729Z,94790.20
2023-06-04T23:29:32.425Z,94788.80
2023-06-04T23:32:00.507Z,94794.00
2023-06-04T23:34:28.286Z,94790.80
2023-06-04T23:36:59.641Z,94793.40
2023-06-04T23:39:27.327Z,94793.40
2023-06-04T23:41:54.885Z,94791.80
2023-06-04T23:44:22.701Z,94791.80
2023-06-04T23:46:50.689Z,94792.80
2023-06-04T23:49:18.285Z,94792.40
2023-06-04T23:51:45.891Z,94789.60
2023-06-04T23:54:13.560Z,94790.60
2023-06-04T23:56:44.040Z,94792.00
2023-06-04T23:59:12.156Z,94791.60
